Terminal Aerodrome Forecast
Issued by NWS

Home | Current Version | Previous Version | Graphics & Text | Print | Product List | Glossary On
Versions: 1 2 3 4 5 6 7 8 9 10 11 12 13 14 15 16
000
FTUS43 KGRB 170100 AAA
TAFAUW
TAF AMD
KAUW 170104Z 1701/1724 12012G21KT 5SM -SN BKN030 WS015/16040KT
      TEMPO 1703/1706 2SM -SN BR BKN015
     FM170600 13012KT 3/4SM -SN BR OVC006 WS015/16040KT
     FM171200 20008G15KT P6SM -RASN BKN012
     FM171700 25009G15KT P6SM BKN025
     FM172000 29010G17KT P6SM BKN035=

USA.gov is the U.S. government's official web portal to all federal, state and local government web resources and services.